Impacts METAR Board
IDs:

KMCO - Orlando Intl, FL, US

Updated at: 1100 UTC 09 Jul 2020
Potential Impact None Slight Moderate High
Time 08/23Z 09/00Z 09/01Z 09/02Z 09/03Z 09/04Z 09/05Z 09/06Z 09/07Z 09/08Z 09/09Z 09/10Z 09/11Z
Temp86 85 83 82 81 81 80 80 79 78 78 78 79
Dewpt74 73 73 74 74 74 75 75 75 75 75 75 75
Altim29.91 29.91 29.92 29.93 29.95 29.95 29.95 29.94 29.92 29.91 29.91 29.91 29.92
VIS10 10 10 10 10 10 10 10 10 10 10 10 10
CIG300 300 300 -- -- -- -- 250 250 250 250 250 280
CoverOVCBKNBKNSCTFEWSCTSCTBKNBKNBKNBKNBKNBKN
FltCatVFRVFRVFRVFRVFRVFRVFRVFRVFRVFRVFRVFRVFR
WX--------------------------
WDir260260270250250260270260270250250270280
WSpd12 9 10 6 7 8 7 6 5 6 4 7 6
WGst-- -- -- -- -- -- -- -- -- -- -- -- --
Raw hourly METARs
KMCO 082253Z 26012KT 10SM FEW027 SCT250 OVC300 30/23 A2991 RMK AO2 SLP125 T03000233
KMCO 082353Z 26009KT 10SM FEW030 FEW170 BKN300 29/23 A2991 RMK AO2 SLP127 60000 T02940228 10306 20256 55001
KMCO 090053Z 27010KT 10SM FEW030 FEW170 SCT250 BKN300 28/23 A2992 RMK AO2 SLP130 T02830228
KMCO 090153Z 25006KT 10SM FEW250 SCT300 28/23 A2993 RMK AO2 SLP135 T02780233
KMCO 090253Z 25007KT 10SM FEW250 27/23 A2995 RMK AO2 SLP139 T02720233 53012
KMCO 090353Z 26008KT 10SM FEW030 SCT250 27/23 A2995 RMK AO2 SLP138 OCNL LTGIC DSNT N CB DSNT N T02720233
KMCO 090453Z 27007KT 10SM SCT250 27/24 A2995 RMK AO2 SLP139 T02670239 403170244
KMCO 090553Z 26006KT 10SM BKN250 27/24 A2994 RMK AO2 SLP135 T02670239 10294 20261 58003
KMCO 090653Z 27005KT 10SM BKN250 26/24 A2992 RMK AO2 SLP128 T02610239
KMCO 090753Z 25006KT 10SM BKN250 26/24 A2991 RMK AO2 SLP127 T02560239
KMCO 090853Z 25004KT 10SM BKN250 26/24 A2991 RMK AO2 SLP127 T02560239 56008
KMCO 090953Z 27007KT 10SM BKN250 26/24 A2991 RMK AO2 SLP127 T02560239
KMCO 091053Z 28006KT 10SM FEW170 BKN280 26/24 A2992 RMK AO2 SLP132 T02610239



Page loaded:  11:57 UTC  |   04:57 AM Pacific  |   05:57 AM Mountain  |   06:57 AM Central  |   07:57 AM Eastern

 

ADVISORIES

FORECASTS

FORECASTS

OBSERVATIONS

USER TOOLS

ABOUT US